Concan, Texas
Current Conditions -  °F | °C
As of 2:55 AM on Wednesday 22 Oct 2014 (Local Time) from KUVA Reporting Station
Scattered Clouds Scattered Clouds  
Wind Chill: 72°   Ceiling: Unl
Heat Index: 72°   Visibility: 10mi
Dew Point: 53°   Wind: 5mph
Humidity: 51%   Direction: 80°E
Pressure: 30.05"   Gusts: NA
Location:  29.5°N, 99.71°W
Report Text: KUVA 220755Z AUTO 08004KT 10SM SCT080 22/12 A3005 RMK AO2 T02230117
Loading
Personal Weather Stations






























Interactive Weather Map
Tropical Storm Tracking
New forecast layout! Learn more

10-Day Weather Forecast

Advertisements
Track Severe Weather on mobile